Time;durP1;ratioP1;P1;durP2;ratioP2;P2;SDS_P1;SDS_P2;PMS_P1;PMS_P2;Temp;Humidity;BMP_temperature;BMP_pressure;BME280_temperature;BME280_humidity;BME280_pressure;Samples;Min_cycle;Max_cycle;Signal;HPM_P1;HPM_P2
2021/05/31 00:00:24;;;;;;;34.30;24.67;;;9.70;99.90;;;;;;5027886;28;20109;-60
2021/05/31 00:02:53;;;;;;;38.03;26.55;;;9.70;99.90;;;;;;5027018;28;20062;-58
2021/05/31 00:05:25;;;;;;;32.20;23.80;;;9.70;99.90;;;;;;5004709;28;20119;-59
2021/05/31 00:07:55;;;;;;;30.83;23.88;;;9.60;99.90;;;;;;5034452;28;20088;-55
2021/05/31 00:10:24;;;;;;;33.90;25.20;;;9.60;99.90;;;;;;5025346;28;20056;-61
2021/05/31 00:12:53;;;;;;;33.92;25.50;;;9.60;99.90;;;;;;5026988;28;20045;-61
2021/05/31 00:15:22;;;;;;;34.85;25.85;;;9.60;99.90;;;;;;5026748;28;20049;-61
2021/05/31 00:18:02;;;;;;;33.28;24.35;;;9.50;99.90;;;;;;5027239;28;20057;-60
2021/05/31 00:20:34;;;;;;;32.75;26.45;;;9.50;99.90;;;;;;5010802;28;20859;-60
2021/05/31 00:23:02;;;;;;;32.25;26.50;;;9.50;99.90;;;;;;5027604;28;20052;-60
2021/05/31 00:25:29;;;;;;;35.30;24.88;;;9.50;99.90;;;;;;5027850;28;20095;-60
2021/05/31 00:28:08;;;;;;;37.05;26.00;;;9.40;99.90;;;;;;5027797;28;20045;-59
2021/05/31 00:30:43;;;;;;;29.67;25.00;;;9.40;99.90;;;;;;5013204;28;20053;-61
2021/05/31 00:33:09;;;;;;;34.38;25.33;;;9.40;99.90;;;;;;5027849;28;20136;-61
2021/05/31 00:35:41;;;;;;;31.58;25.50;;;9.40;99.90;;;;;;5033990;28;20045;-57
2021/05/31 00:38:17;;;;;;;35.72;26.25;;;9.40;99.90;;;;;;5028471;28;20480;-61
2021/05/31 00:40:43;;;;;;;39.40;27.50;;;9.30;99.90;;;;;;5007821;28;20175;-60
2021/05/31 00:43:20;;;;;;;32.63;25.23;;;9.30;99.90;;;;;;5027110;28;20053;-58
2021/05/31 00:45:49;;;;;;;31.83;24.90;;;9.20;99.90;;;;;;5027348;28;20046;-59
2021/05/31 00:48:23;;;;;;;30.95;25.75;;;9.20;99.90;;;;;;5027266;28;20049;-62
2021/05/31 00:50:49;;;;;;;;;;;9.20;99.90;;;;;;5027871;28;20064;-62
2021/05/31 00:53:24;;;;;;;33.38;26.52;;;9.20;99.90;;;;;;4990863;28;20388;-61
2021/05/31 00:55:53;;;;;;;36.03;26.60;;;9.10;99.90;;;;;;5023421;28;20053;-61
2021/05/31 00:58:27;;;;;;;34.35;26.77;;;9.10;99.90;;;;;;5026730;28;20056;-60
2021/05/31 01:00:55;;;;;;;37.30;26.33;;;9.10;99.90;;;;;;5023702;28;20092;-61
2021/05/31 01:03:23;;;;;;;35.85;28.23;;;9.00;99.90;;;;;;5026376;28;20049;-60
2021/05/31 01:05:54;;;;;;;36.72;25.40;;;9.00;99.90;;;;;;5027306;28;20136;-59
2021/05/31 01:08:26;;;;;;;;;;;8.90;99.90;;;;;;5026628;28;20045;-61
2021/05/31 01:11:11;;;;;;;35.80;25.73;;;9.00;99.90;;;;;;5027040;28;19924;-63
2021/05/31 01:14:04;;;;;;;36.25;26.60;;;9.00;99.90;;;;;;5007182;28;20048;-62
2021/05/31 01:16:46;;;;;;;40.53;27.15;;;9.10;99.90;;;;;;5026297;28;20227;-62
2021/05/31 01:19:28;;;;;;;39.75;28.27;;;9.20;99.90;;;;;;5019869;28;20049;-57
2021/05/31 01:22:12;;;;;;;;;;;9.20;99.90;;;;;;5020629;28;20046;-63
2021/05/31 01:24:45;;;;;;;45.42;28.63;;;9.20;99.90;;;;;;5027771;28;19925;-60
2021/05/31 01:27:24;;;;;;;56.67;27.98;;;9.10;99.90;;;;;;5027712;28;20049;-63
2021/05/31 01:29:59;;;;;;;37.55;27.83;;;9.10;99.90;;;;;;5026715;28;20136;-61
2021/05/31 01:32:36;;;;;;;44.97;29.02;;;9.10;99.90;;;;;;5026718;28;20387;-61
2021/05/31 01:35:10;;;;;;;45.85;29.08;;;9.20;99.90;;;;;;5023990;28;20077;-62
2021/05/31 01:37:43;;;;;;;47.38;31.08;;;9.20;99.90;;;;;;5026652;28;20053;-57
2021/05/31 01:40:11;;;;;;;62.58;31.10;;;9.20;99.90;;;;;;5027122;28;20049;-62
2021/05/31 01:42:41;;;;;;;52.55;30.73;;;9.20;99.90;;;;;;5028631;28;20057;-62
2021/05/31 01:45:10;;;;;;;50.00;31.13;;;9.20;99.90;;;;;;5025595;28;20041;-60
2021/05/31 01:47:46;;;;;;;44.97;31.02;;;9.30;99.90;;;;;;5032579;28;20060;-60
2021/05/31 01:50:15;;;;;;;56.97;28.42;;;9.30;99.90;;;;;;5030940;28;20063;-58
2021/05/31 01:52:48;;;;;;;46.30;28.15;;;9.30;99.90;;;;;;5032523;28;20088;-61
2021/05/31 01:55:17;;;;;;;49.22;30.85;;;9.30;99.90;;;;;;5015466;28;20072;-62
2021/05/31 01:57:50;;;;;;;45.83;28.17;;;9.30;99.90;;;;;;5033132;28;20060;-56
2021/05/31 02:00:22;;;;;;;52.25;28.60;;;9.40;99.90;;;;;;5033148;28;20045;-58
2021/05/31 02:02:55;;;;;;;55.53;31.13;;;9.40;99.90;;;;;;5032765;28;20721;-61
2021/05/31 02:05:35;;;;;;;48.42;28.85;;;9.40;99.90;;;;;;5032193;28;20057;-61
2021/05/31 02:08:07;;;;;;;35.72;27.88;;;9.40;99.90;;;;;;5033128;28;20056;-62
2021/05/31 02:10:39;;;;;;;46.92;27.90;;;9.40;99.90;;;;;;5033310;28;20057;-61
2021/05/31 02:13:12;;;;;;;44.15;28.35;;;9.40;99.90;;;;;;5032841;28;20041;-58
2021/05/31 02:15:55;;;;;;;37.10;27.90;;;9.40;99.90;;;;;;5003160;28;20056;-60
2021/05/31 02:18:31;;;;;;;35.55;27.83;;;9.50;99.90;;;;;;5032833;28;20060;-62
2021/05/31 02:21:12;;;;;;;36.55;26.40;;;9.50;99.90;;;;;;5031988;28;20913;-61
2021/05/31 02:23:41;;;;;;;44.67;27.77;;;9.60;99.90;;;;;;5035939;28;20524;-62
2021/05/31 02:26:13;;;;;;;40.15;26.83;;;9.50;99.90;;;;;;5014352;28;20049;-59
2021/05/31 02:28:48;;;;;;;47.00;27.00;;;9.50;99.90;;;;;;5032684;28;20128;-62
2021/05/31 02:31:18;;;;;;;60.88;27.73;;;9.50;99.90;;;;;;5031635;28;20072;-61
2021/05/31 02:33:48;;;;;;;38.17;25.77;;;9.50;99.90;;;;;;5031457;28;20080;-62
2021/05/31 02:36:23;;;;;;;54.15;27.92;;;9.40;99.90;;;;;;5030470;28;20057;-63
2021/05/31 02:38:54;;;;;;;39.05;28.27;;;9.40;99.90;;;;;;5032570;28;20489;-60
2021/05/31 02:41:20;;;;;;;37.72;26.73;;;9.40;99.90;;;;;;5031865;28;20056;-61
2021/05/31 02:43:52;;;;;;;31.75;25.42;;;9.40;99.90;;;;;;5037953;28;20252;-56
2021/05/31 02:46:23;;;;;;;37.88;21.80;;;9.40;99.90;;;;;;5032387;28;20421;-59
2021/05/31 02:48:50;;;;;;;29.80;23.45;;;9.40;99.90;;;;;;5031991;28;20136;-61
2021/05/31 02:51:20;;;;;;;33.00;23.00;;;9.30;99.90;;;;;;5032198;28;20053;-57
2021/05/31 02:53:48;;;;;;;44.28;22.92;;;9.30;99.90;;;;;;5030976;28;20524;-59
2021/05/31 02:56:17;;;;;;;51.05;24.50;;;9.20;99.90;;;;;;5029194;28;20111;-61
2021/05/31 02:58:49;;;;;;;53.10;24.13;;;9.20;99.90;;;;;;5029564;28;20579;-62
2021/05/31 03:01:15;;;;;;;49.92;25.52;;;9.30;99.90;;;;;;5012101;28;20057;-62
2021/05/31 03:03:45;;;;;;;52.03;24.60;;;9.30;99.90;;;;;;5028987;28;20076;-59
2021/05/31 03:06:14;;;;;;;70.40;24.70;;;9.30;99.90;;;;;;5028761;28;20088;-61
2021/05/31 03:08:44;;;;;;;103.13;26.23;;;9.30;99.90;;;;;;5029588;28;20244;-62
2021/05/31 03:11:18;;;;;;;81.88;27.05;;;9.30;99.90;;;;;;5018585;28;20054;-62
2021/05/31 03:13:50;;;;;;;72.72;26.58;;;9.30;99.90;;;;;;5028961;28;20049;-61
2021/05/31 03:16:22;;;;;;;78.05;25.23;;;9.40;99.90;;;;;;5029300;28;20049;-61
2021/05/31 03:18:51;;;;;;;74.90;27.20;;;9.30;99.90;;;;;;5029680;28;20049;-62
2021/05/31 03:21:22;;;;;;;72.05;25.23;;;9.40;99.90;;;;;;5028687;28;20082;-60
2021/05/31 03:23:54;;;;;;;42.83;23.15;;;9.40;99.90;;;;;;5028750;28;20064;-59
2021/05/31 03:26:26;;;;;;;69.25;24.35;;;9.40;99.90;;;;;;5029081;28;20088;-60
2021/05/31 03:28:58;;;;;;;63.33;22.27;;;9.40;99.90;;;;;;5028414;28;20049;-61
2021/05/31 03:31:30;;;;;;;56.08;24.08;;;9.40;99.90;;;;;;5028482;28;20057;-61
2021/05/31 03:33:56;;;;;;;79.97;24.20;;;9.40;99.90;;;;;;5028858;28;20049;-62
2021/05/31 03:36:30;;;;;;;81.22;26.65;;;9.40;99.90;;;;;;5026172;28;20077;-61
2021/05/31 03:39:00;;;;;;;;;;;9.40;99.90;;;;;;5029184;28;20057;-53
2021/05/31 03:41:29;;;;;;;78.40;26.80;;;9.50;99.90;;;;;;5028645;28;20443;-57
2021/05/31 03:44:03;;;;;;;55.38;25.50;;;9.50;99.90;;;;;;5028534;28;20049;-63
2021/05/31 03:46:32;;;;;;;57.70;25.58;;;9.50;99.90;;;;;;5027816;28;20085;-62
2021/05/31 03:49:06;;;;;;;71.43;26.13;;;9.50;99.90;;;;;;5033017;28;20075;-62
2021/05/31 03:51:38;;;;;;;62.28;24.30;;;9.60;99.90;;;;;;5028268;28;20144;-62
2021/05/31 03:54:11;;;;;;;79.20;25.13;;;9.50;99.90;;;;;;5029040;28;20129;-61
2021/05/31 03:56:37;;;;;;;65.45;24.27;;;9.50;99.90;;;;;;5028558;28;20045;-61
2021/05/31 03:59:09;;;;;;;76.13;24.05;;;9.50;99.90;;;;;;5028177;28;20084;-59
2021/05/31 04:01:41;;;;;;;74.63;25.38;;;9.50;99.90;;;;;;5031409;28;20045;-59
2021/05/31 04:04:12;;;;;;;51.33;22.70;;;9.60;99.90;;;;;;5028112;28;20049;-62
2021/05/31 04:12:12;;;;;;;48.55;24.92;;;9.70;99.90;;;;;;5022021;28;20053;-59
2021/05/31 04:14:41;;;;;;;75.82;26.27;;;9.70;99.90;;;;;;5027571;28;20057;-62
2021/05/31 04:17:08;;;;;;;53.03;26.92;;;9.70;99.90;;;;;;5027856;28;20129;-62
2021/05/31 04:19:40;;;;;;;67.70;26.98;;;9.80;99.90;;;;;;5027831;28;20153;-60
2021/05/31 04:22:12;;;;;;;43.50;24.38;;;9.80;99.90;;;;;;5027451;28;20053;-62
2021/05/31 04:24:39;;;;;;;62.05;24.48;;;9.90;99.90;;;;;;5027754;28;20053;-60
2021/05/31 04:27:11;;;;;;;69.20;24.98;;;9.80;99.90;;;;;;5027249;28;20502;-60
2021/05/31 04:29:37;;;;;;;47.95;22.83;;;9.80;99.90;;;;;;5026563;28;20508;-60
2021/05/31 04:32:09;;;;;;;65.07;24.50;;;9.80;99.90;;;;;;5031464;28;20099;-61
2021/05/31 04:34:40;;;;;;;74.00;25.13;;;9.90;99.90;;;;;;5027189;28;20057;-61
2021/05/31 04:37:13;;;;;;;60.30;25.20;;;9.80;99.90;;;;;;5027598;28;20521;-62
2021/05/31 04:39:40;;;;;;;59.88;26.70;;;9.80;99.90;;;;;;5002296;28;20583;-62
2021/05/31 04:42:09;;;;;;;51.65;25.70;;;9.80;99.90;;;;;;5027791;28;20057;-59
2021/05/31 04:44:39;;;;;;;71.20;25.73;;;9.90;99.90;;;;;;5023951;28;20056;-59
2021/05/31 04:47:07;;;;;;;63.88;25.65;;;10.00;99.90;;;;;;5028081;28;20057;-57
2021/05/31 04:49:41;;;;;;;45.55;22.15;;;10.00;99.90;;;;;;5027882;28;20053;-57
2021/05/31 04:52:17;;;;;;;61.17;23.20;;;10.00;99.90;;;;;;5028180;28;20060;-62
2021/05/31 04:54:48;;;;;;;93.88;26.83;;;10.00;99.90;;;;;;5027349;28;20725;-59
2021/05/31 04:57:17;;;;;;;41.08;24.40;;;10.00;99.90;;;;;;5027286;28;20045;-60
2021/05/31 04:59:47;;;;;;;59.42;22.67;;;10.10;99.90;;;;;;5027312;28;20049;-60
2021/05/31 05:02:17;;;;;;;65.68;24.38;;;10.10;99.90;;;;;;5009353;28;20050;-58
2021/05/31 05:04:53;;;;;;;69.18;22.77;;;10.20;99.90;;;;;;5027930;28;20064;-58
2021/05/31 05:07:21;;;;;;;;;;;10.20;99.90;;;;;;5027118;28;20046;-59
2021/05/31 05:09:50;;;;;;;43.00;21.35;;;10.10;99.90;;;;;;5004733;28;20357;-60
2021/05/31 05:12:17;;;;;;;60.42;22.80;;;10.30;99.90;;;;;;5018994;28;20445;-60
2021/05/31 05:14:45;;;;;;;59.90;21.67;;;10.40;99.90;;;;;;5034982;28;20508;-59
2021/05/31 05:17:11;;;;;;;78.55;24.48;;;10.40;99.90;;;;;;5028310;28;20545;-55
2021/05/31 05:19:41;;;;;;;48.35;23.60;;;10.60;99.90;;;;;;5022932;28;20383;-59
2021/05/31 05:22:11;;;;;;;50.55;22.70;;;10.60;99.90;;;;;;5025480;28;20049;-58
2021/05/31 05:24:40;;;;;;;63.25;24.73;;;10.80;99.90;;;;;;5026849;28;20046;-59
2021/05/31 05:27:07;;;;;;;38.17;23.75;;;10.80;99.90;;;;;;5026011;28;20049;-58
2021/05/31 05:29:33;;;;;;;57.28;24.65;;;10.90;99.90;;;;;;5022066;28;20054;-61
2021/05/31 05:32:00;;;;;;;59.25;24.83;;;10.90;99.90;;;;;;5017154;28;20054;-60
2021/05/31 05:34:26;;;;;;;44.30;23.67;;;11.10;99.90;;;;;;5017572;28;20136;-58
2021/05/31 05:36:56;;;;;;;48.35;23.60;;;11.10;99.90;;;;;;5027559;28;20053;-60
2021/05/31 05:42:20;;;;;;;73.72;23.08;;;11.10;99.90;;;;;;5026836;28;20053;-58
2021/05/31 05:45:11;;;;;;;37.58;23.33;;;11.20;99.90;;;;;;5026306;28;20042;-60
2021/05/31 05:47:46;;;;;;;51.00;23.15;;;11.30;99.90;;;;;;5018072;28;20498;-57
2021/05/31 05:50:16;;;;;;;61.90;23.20;;;11.30;99.90;;;;;;5025566;28;20053;-59
2021/05/31 05:52:45;;;;;;;88.53;26.85;;;11.30;99.90;;;;;;5024956;28;20056;-59
2021/05/31 05:55:12;;;;;;;39.90;22.75;;;11.40;99.90;;;;;;5026213;28;20533;-58
2021/05/31 05:57:40;;;;;;;47.83;24.15;;;11.50;99.90;;;;;;5021355;28;20861;-60
2021/05/31 06:00:25;;;;;;;59.65;24.10;;;11.50;99.90;;;;;;5015053;28;20615;-59
2021/05/31 06:02:54;;;;;;;47.22;24.13;;;11.50;99.90;;;;;;5022537;28;20099;-59
2021/05/31 06:05:21;;;;;;;51.72;24.67;;;11.60;99.90;;;;;;5026293;28;20587;-60
2021/05/31 06:07:50;;;;;;;39.88;23.27;;;11.60;99.90;;;;;;5025150;28;20061;-59
2021/05/31 06:10:18;;;;;;;30.02;20.98;;;11.60;99.90;;;;;;5023117;28;20602;-56
2021/05/31 06:12:51;;;;;;;48.15;26.00;;;11.80;99.90;;;;;;5024451;28;20065;-60
2021/05/31 06:15:17;;;;;;;27.92;22.35;;;11.80;99.90;;;;;;5025052;28;20057;-59
2021/05/31 06:17:49;;;;;;;33.80;26.65;;;11.90;99.90;;;;;;5022654;28;20131;-60
2021/05/31 06:20:24;;;;;;;62.35;42.67;;;11.90;99.90;;;;;;5020267;28;20072;-61
2021/05/31 06:22:53;;;;;;;62.70;53.15;;;11.90;99.90;;;;;;5018044;28;20534;-60
2021/05/31 06:25:25;;;;;;;33.08;28.58;;;11.90;99.90;;;;;;5023190;28;20049;-61
2021/05/31 06:27:54;;;;;;;63.00;43.92;;;11.90;99.90;;;;;;5018382;28;20057;-60
2021/05/31 06:30:22;;;;;;;29.70;25.55;;;11.90;99.90;;;;;;5008095;28;20172;-60
2021/05/31 06:32:57;;;;;;;47.20;23.73;;;12.00;99.90;;;;;;5014521;28;20159;-59
2021/05/31 06:35:25;;;;;;;67.18;52.40;;;12.00;99.90;;;;;;5042952;28;20799;-61
2021/05/31 06:37:52;;;;;;;52.55;38.42;;;12.00;99.90;;;;;;5028818;28;20072;-61
2021/05/31 06:40:36;;;;;;;35.17;29.65;;;12.10;99.90;;;;;;5027156;28;20050;-61
2021/05/31 06:43:03;;;;;;;31.70;27.73;;;12.20;99.90;;;;;;5022265;28;20054;-61
2021/05/31 06:45:33;;;;;;;32.92;26.50;;;12.10;99.90;;;;;;5026480;28;20048;-59
2021/05/31 06:48:03;;;;;;;42.88;36.25;;;12.30;99.90;;;;;;5029053;28;20045;-60
2021/05/31 06:50:36;;;;;;;43.97;35.63;;;12.30;99.90;;;;;;5029583;28;20119;-60
2021/05/31 06:53:05;;;;;;;41.20;26.55;;;12.40;99.90;;;;;;5028082;28;20061;-62
2021/05/31 06:55:34;;;;;;;28.38;24.00;;;12.40;99.90;;;;;;5029223;28;20093;-61
2021/05/31 06:58:01;;;;;;;29.05;25.95;;;12.40;99.90;;;;;;5034521;28;20042;-60
2021/05/31 07:00:28;;;;;;;32.65;26.75;;;12.50;99.90;;;;;;5029000;28;20049;-59
2021/05/31 07:02:56;;;;;;;32.20;26.73;;;12.60;99.90;;;;;;5028353;28;20063;-60
2021/05/31 07:05:23;;;;;;;33.92;27.60;;;12.60;99.90;;;;;;5025970;28;20057;-59
2021/05/31 07:07:50;;;;;;;28.58;23.98;;;12.70;99.90;;;;;;5028390;28;20061;-60
2021/05/31 07:10:22;;;;;;;40.75;35.90;;;12.70;99.90;;;;;;5019891;28;20045;-59
2021/05/31 07:12:49;;;;;;;35.40;30.52;;;12.80;99.90;;;;;;5027145;28;20037;-61
2021/05/31 07:15:18;;;;;;;27.45;23.35;;;12.90;99.90;;;;;;5029714;28;20045;-61
2021/05/31 07:17:50;;;;;;;26.85;22.27;;;13.00;99.90;;;;;;5028722;28;20096;-61
2021/05/31 07:20:19;;;;;;;28.92;25.95;;;13.10;99.90;;;;;;5022702;28;20075;-62
2021/05/31 07:22:51;;;;;;;22.77;20.45;;;13.20;99.90;;;;;;5028781;28;20144;-59
2021/05/31 07:25:20;;;;;;;26.23;23.55;;;13.30;99.90;;;;;;5026436;28;20076;-60
2021/05/31 07:27:51;;;;;;;25.45;22.77;;;13.30;99.80;;;;;;5027184;28;20069;-61
2021/05/31 07:30:19;;;;;;;22.98;20.65;;;13.30;99.70;;;;;;5025872;28;20046;-61
2021/05/31 07:32:46;;;;;;;23.08;20.42;;;13.40;99.50;;;;;;5027061;28;20046;-61
2021/05/31 07:35:13;;;;;;;24.55;21.60;;;13.40;99.70;;;;;;5026719;28;20064;-62
2021/05/31 07:37:39;;;;;;;23.33;21.02;;;13.40;99.50;;;;;;5027704;28;20053;-62
2021/05/31 07:40:09;;;;;;;27.70;24.77;;;13.40;99.30;;;;;;5025990;28;20053;-60
2021/05/31 07:42:36;;;;;;;61.53;54.70;;;13.50;99.40;;;;;;5028367;28;20053;-62
2021/05/31 07:45:06;;;;;;;69.80;62.30;;;13.60;99.10;;;;;;5027594;28;20052;-61
2021/05/31 07:47:32;;;;;;;24.92;20.83;;;13.70;98.80;;;;;;5026437;28;20508;-61
2021/05/31 07:49:59;;;;;;;26.45;23.52;;;13.60;98.40;;;;;;5027437;28;20060;-57
2021/05/31 07:52:33;;;;;;;28.13;24.83;;;13.70;98.70;;;;;;5027947;28;20049;-60
2021/05/31 07:55:08;;;;;;;36.38;32.50;;;13.80;98.60;;;;;;5028202;28;20494;-60
2021/05/31 07:57:34;;;;;;;23.83;21.27;;;13.60;98.50;;;;;;5025120;28;20642;-60
2021/05/31 08:00:03;;;;;;;24.25;21.65;;;13.70;98.90;;;;;;5027256;28;20577;-61
2021/05/31 08:02:43;;;;;;;23.42;20.92;;;13.90;99.20;;;;;;5027568;28;20041;-57
2021/05/31 08:05:11;;;;;;;21.55;19.35;;;14.00;99.10;;;;;;5030949;28;20099;-59
2021/05/31 08:07:42;;;;;;;24.33;21.73;;;14.20;98.80;;;;;;5032226;28;20127;-60
2021/05/31 08:10:09;;;;;;;23.73;21.23;;;14.40;98.70;;;;;;5026939;28;20044;-60
2021/05/31 08:12:36;;;;;;;22.35;20.05;;;14.60;98.00;;;;;;5026798;28;20474;-59
2021/05/31 08:15:06;;;;;;;22.25;19.90;;;14.60;97.40;;;;;;5025272;28;20057;-62
2021/05/31 08:17:33;;;;;;;26.17;23.50;;;14.60;97.20;;;;;;5023017;28;20053;-62
2021/05/31 08:20:05;;;;;;;59.78;52.83;;;14.60;97.40;;;;;;5028500;28;20045;-61
2021/05/31 08:22:32;;;;;;;23.75;20.90;;;14.70;97.10;;;;;;5026078;28;20049;-61
2021/05/31 08:25:07;;;;;;;25.33;22.80;;;14.80;97.20;;;;;;5022584;28;20124;-63
2021/05/31 08:27:34;;;;;;;35.97;31.95;;;15.00;97.10;;;;;;5027652;28;20133;-62
2021/05/31 08:30:04;;;;;;;23.15;20.80;;;15.20;96.60;;;;;;5030112;28;20041;-60
2021/05/31 08:32:31;;;;;;;26.80;24.05;;;15.40;96.20;;;;;;5028024;28;20049;-62
2021/05/31 08:35:02;;;;;;;22.05;19.80;;;15.30;96.00;;;;;;5027651;28;20056;-61
2021/05/31 08:37:29;;;;;;;25.15;22.50;;;15.60;95.80;;;;;;5023904;28;20056;-61
2021/05/31 08:40:00;;;;;;;20.92;18.83;;;15.70;95.70;;;;;;5026238;28;20065;-63
2021/05/31 08:42:26;;;;;;;41.42;36.45;;;15.70;95.60;;;;;;5026727;28;20050;-62
2021/05/31 08:44:52;;;;;;;23.95;21.45;;;15.70;95.70;;;;;;5025854;28;20100;-64
2021/05/31 08:47:20;;;;;;;23.20;20.77;;;15.70;95.50;;;;;;5012012;28;20068;-62
2021/05/31 08:49:47;;;;;;;23.90;21.33;;;15.70;95.70;;;;;;5026831;28;20077;-63
2021/05/31 08:52:16;;;;;;;21.33;19.33;;;16.00;95.00;;;;;;5017661;28;20056;-64
2021/05/31 08:54:44;;;;;;;21.15;18.88;;;16.70;94.40;;;;;;5034558;28;20067;-64
2021/05/31 08:57:13;;;;;;;22.10;19.90;;;16.80;93.90;;;;;;5027427;28;20045;-63
2021/05/31 08:59:42;;;;;;;19.88;17.85;;;17.20;93.30;;;;;;5027335;28;20073;-63
2021/05/31 09:02:10;;;;;;;21.08;19.00;;;17.40;93.30;;;;;;4993843;28;20050;-66
2021/05/31 09:04:45;;;;;;;26.38;23.75;;;17.80;92.20;;;;;;5025825;28;20057;-67
2021/05/31 09:07:17;;;;;;;21.83;19.65;;;18.10;90.70;;;;;;5027468;28;20049;-68
2021/05/31 09:09:44;;;;;;;22.73;20.00;;;18.20;92.30;;;;;;5025656;28;20046;-63
2021/05/31 09:12:23;;;;;;;26.05;23.35;;;18.60;90.80;;;;;;5022354;28;20048;-65
2021/05/31 09:15:16;;;;;;;20.45;18.35;;;19.00;90.40;;;;;;5023048;28;20046;-63
2021/05/31 09:17:42;;;;;;;23.45;21.15;;;19.50;86.70;;;;;;5000920;28;20061;-63
2021/05/31 09:20:10;;;;;;;20.98;18.92;;;19.70;90.50;;;;;;5026965;28;20136;-64
2021/05/31 09:22:51;;;;;;;20.98;18.95;;;19.90;89.90;;;;;;4989577;28;20065;-64
2021/05/31 09:25:30;;;;;;;19.98;18.00;;;20.20;84.90;;;;;;5007907;28;20046;-62
2021/05/31 09:27:58;;;;;;;21.80;19.65;;;20.50;85.00;;;;;;5026528;28;20068;-64
2021/05/31 09:30:42;;;;;;;26.17;23.55;;;20.60;85.90;;;;;;5026425;28;20136;-64
2021/05/31 09:33:14;;;;;;;30.27;27.50;;;21.00;79.90;;;;;;5019197;28;20111;-65
2021/05/31 09:35:42;;;;;;;18.40;16.70;;;21.10;82.10;;;;;;5017215;28;20057;-64
2021/05/31 09:38:15;;;;;;;24.95;22.58;;;21.30;82.30;;;;;;5024922;28;20777;-65
2021/05/31 09:40:54;;;;;;;23.15;21.05;;;21.60;78.00;;;;;;5009433;28;20054;-64
2021/05/31 09:43:23;;;;;;;19.23;17.42;;;21.60;77.30;;;;;;5025658;28;20160;-65
2021/05/31 09:45:49;;;;;;;15.82;14.32;;;21.50;79.60;;;;;;5027360;28;20049;-65
2021/05/31 09:48:16;;;;;;;17.38;15.73;;;21.90;79.90;;;;;;5032442;28;20571;-63
2021/05/31 09:50:53;;;;;;;17.38;15.68;;;22.00;78.50;;;;;;5041178;28;20056;-67
2021/05/31 09:53:20;;;;;;;16.65;15.15;;;22.50;75.20;;;;;;5027225;28;20075;-64
2021/05/31 09:55:56;;;;;;;17.27;15.65;;;22.60;77.10;;;;;;5027286;28;20053;-63
2021/05/31 09:58:24;;;;;;;23.33;21.25;;;22.80;75.30;;;;;;5031065;28;20202;-66
2021/05/31 10:00:59;;;;;;;18.75;16.85;;;22.70;73.40;;;;;;5041645;28;20049;-66
2021/05/31 10:08:40;;;;;;;18.65;16.90;;;23.40;69.50;;;;;;5030552;28;20498;-65
2021/05/31 10:11:07;;;;;;;14.88;13.57;;;23.30;67.90;;;;;;5031963;28;20064;-65
2021/05/31 10:13:37;;;;;;;18.85;17.20;;;23.30;66.20;;;;;;5030573;28;20057;-68
2021/05/31 10:16:04;;;;;;;13.23;11.98;;;23.70;65.40;;;;;;5008496;28;20050;-67
2021/05/31 10:18:31;;;;;;;16.17;14.63;;;24.00;65.50;;;;;;5030537;28;20042;-65
2021/05/31 10:21:00;;;;;;;19.65;17.90;;;24.20;65.50;;;;;;5031064;28;20064;-65
2021/05/31 10:23:32;;;;;;;13.50;12.27;;;24.50;61.90;;;;;;5031115;28;20046;-65
2021/05/31 10:26:01;;;;;;;11.30;10.20;;;24.60;59.90;;;;;;5030170;28;20383;-66
2021/05/31 10:28:39;;;;;;;13.35;12.05;;;24.90;57.50;;;;;;5030710;28;20053;-67
2021/05/31 10:31:08;;;;;;;12.07;10.93;;;24.70;55.20;;;;;;5032767;28;20132;-66
2021/05/31 10:33:39;;;;;;;10.82;9.75;;;25.00;56.60;;;;;;5030360;28;21240;-65
2021/05/31 10:36:20;;;;;;;11.63;10.52;;;25.20;53.20;;;;;;5030836;28;20057;-63
2021/05/31 10:39:00;;;;;;;10.65;9.65;;;25.10;51.70;;;;;;5030575;28;20144;-68
2021/05/31 10:41:30;;;;;;;12.60;11.40;;;24.80;53.40;;;;;;5030388;28;20041;-66
2021/05/31 10:44:01;;;;;;;13.93;12.48;;;25.20;48.50;;;;;;5018994;28;20049;-65
2021/05/31 10:46:33;;;;;;;;;;;25.00;48.50;;;;;;5030871;28;20053;-65
2021/05/31 10:49:05;;;;;;;9.32;8.38;;;24.90;49.10;;;;;;5036342;28;19932;-66
2021/05/31 10:51:45;;;;;;;14.82;13.20;;;25.10;48.50;;;;;;5030138;28;20153;-65
2021/05/31 10:54:15;;;;;;;14.23;12.95;;;25.10;48.20;;;;;;5030126;28;20490;-65
2021/05/31 10:56:47;;;;;;;14.00;12.57;;;25.30;49.10;;;;;;5012200;28;20053;-66
2021/05/31 10:59:20;;;;;;;25.02;22.58;;;25.60;50.50;;;;;;5029472;28;20505;-65
2021/05/31 11:01:46;;;;;;;10.38;9.32;;;26.00;48.90;;;;;;5028966;28;20077;-62
2021/05/31 11:04:26;;;;;;;12.82;11.55;;;26.30;48.70;;;;;;5029530;28;20073;-65
2021/05/31 11:07:01;;;;;;;5.97;5.40;;;26.70;46.50;;;;;;5029882;28;20049;-66
2021/05/31 11:09:33;;;;;;;9.30;8.40;;;26.30;42.80;;;;;;5035924;28;20041;-64
2021/05/31 11:12:03;;;;;;;6.53;4.70;;;26.20;43.00;;;;;;5030362;28;20136;-64
2021/05/31 11:14:36;;;;;;;6.60;5.95;;;26.40;40.60;;;;;;5030981;28;20610;-63
2021/05/31 11:17:12;;;;;;;8.15;7.20;;;26.10;40.60;;;;;;5028763;28;20053;-65
2021/05/31 11:19:47;;;;;;;7.72;5.50;;;26.10;40.40;;;;;;5027349;28;20049;-65
2021/05/31 11:22:25;;;;;;;8.80;5.90;;;25.90;39.50;;;;;;5008480;28;20505;-65
2021/05/31 11:25:07;;;;;;;8.00;7.18;;;26.00;40.80;;;;;;5028382;28;20434;-64
2021/05/31 11:27:38;;;;;;;9.23;7.07;;;26.20;40.80;;;;;;5028680;28;20081;-63
2021/05/31 11:30:08;;;;;;;8.07;6.57;;;26.30;41.40;;;;;;5027577;28;20047;-63
2021/05/31 11:32:37;;;;;;;8.73;7.93;;;26.00;40.70;;;;;;5027757;28;20041;-65
2021/05/31 11:35:06;;;;;;;10.18;8.15;;;26.20;41.10;;;;;;5011068;28;20142;-65
2021/05/31 11:37:38;;;;;;;10.20;9.18;;;25.90;41.70;;;;;;5028942;28;20053;-63
2021/05/31 11:40:32;;;;;;;11.05;8.65;;;25.70;43.30;;;;;;5028951;28;20053;-65
2021/05/31 11:43:05;;;;;;;9.40;8.27;;;26.10;42.30;;;;;;5028284;28;20049;-64
2021/05/31 11:45:38;;;;;;;8.45;7.65;;;26.20;42.80;;;;;;5027748;28;20072;-62
2021/05/31 11:48:12;;;;;;;9.90;8.88;;;26.40;43.00;;;;;;5028223;28;20049;-61
2021/05/31 11:50:43;;;;;;;10.55;9.55;;;26.60;43.10;;;;;;5026174;28;20053;-63
2021/05/31 11:53:16;;;;;;;8.52;7.63;;;27.00;44.10;;;;;;5035081;28;20049;-63
2021/05/31 11:55:43;;;;;;;10.32;9.23;;;27.20;42.10;;;;;;5028419;28;20049;-64
2021/05/31 11:58:12;;;;;;;10.15;9.07;;;26.80;40.90;;;;;;5004657;28;20046;-65
2021/05/31 12:00:42;;;;;;;8.10;7.15;;;27.10;40.00;;;;;;5034312;28;20413;-66
2021/05/31 12:03:17;;;;;;;8.02;7.07;;;26.60;39.10;;;;;;5028602;28;20081;-65
2021/05/31 12:05:45;;;;;;;7.70;6.50;;;26.90;40.00;;;;;;5031497;28;20049;-65
2021/05/31 12:08:15;;;;;;;8.50;7.35;;;26.90;39.40;;;;;;5011237;28;20056;-65
2021/05/31 12:10:45;;;;;;;10.00;9.00;;;27.20;40.30;;;;;;5025766;28;20045;-64
2021/05/31 12:13:13;;;;;;;11.70;9.45;;;27.40;40.80;;;;;;5032173;28;20080;-66
2021/05/31 12:15:45;;;;;;;12.15;11.00;;;27.50;40.20;;;;;;5027799;28;20527;-64
2021/05/31 12:18:16;;;;;;;10.32;8.95;;;27.60;39.80;;;;;;5028840;28;20312;-67
2021/05/31 12:20:45;;;;;;;11.50;10.35;;;27.40;39.80;;;;;;5028799;28;20057;-64
2021/05/31 12:23:22;;;;;;;12.93;11.63;;;27.50;39.40;;;;;;5028794;28;20045;-65
2021/05/31 12:25:50;;;;;;;17.63;15.88;;;27.60;37.90;;;;;;5029611;28;20045;-65
2021/05/31 12:28:18;;;;;;;8.65;7.28;;;27.60;39.30;;;;;;5030688;28;20636;-66
2021/05/31 12:30:54;;;;;;;8.35;7.55;;;27.70;37.20;;;;;;5031417;28;20056;-64
2021/05/31 12:33:23;;;;;;;8.77;6.70;;;27.60;36.50;;;;;;5027405;28;20049;-62
2021/05/31 12:35:50;;;;;;;9.57;6.85;;;27.90;36.80;;;;;;5028512;28;20045;-64
2021/05/31 12:38:21;;;;;;;9.65;7.75;;;28.00;35.80;;;;;;5027832;28;20048;-63
2021/05/31 12:40:54;;;;;;;12.65;11.45;;;28.20;36.40;;;;;;5027651;28;20080;-63
2021/05/31 12:43:34;;;;;;;7.22;5.65;;;28.40;35.80;;;;;;5024023;28;20167;-63
2021/05/31 12:46:02;;;;;;;7.10;5.43;;;28.10;32.70;;;;;;5023002;28;20053;-62
2021/05/31 12:48:29;;;;;;;7.97;6.43;;;28.10;33.30;;;;;;5027380;28;20091;-64
2021/05/31 12:50:58;;;;;;;8.50;6.25;;;28.20;33.00;;;;;;5027079;28;20751;-61
2021/05/31 12:53:30;;;;;;;5.47;3.80;;;27.90;31.90;;;;;;5026180;28;20060;-61
2021/05/31 12:56:22;;;;;;;30.65;27.65;;;28.10;31.30;;;;;;5027529;28;20049;-59
2021/05/31 12:59:06;;;;;;;6.47;4.18;;;27.70;31.30;;;;;;5028350;28;20089;-63
2021/05/31 13:01:34;;;;;;;5.85;4.43;;;27.70;32.30;;;;;;5026901;28;20085;-61
2021/05/31 13:04:05;;;;;;;4.10;3.10;;;28.20;31.50;;;;;;5026361;28;20068;-62
2021/05/31 13:06:39;;;;;;;7.25;3.42;;;28.10;30.30;;;;;;5026814;28;20516;-60
2021/05/31 13:09:20;;;;;;;7.60;4.82;;;28.20;30.20;;;;;;5026507;28;20065;-64